HorshamWeather.Com Historical Data
 
Daily Summary for March 26, 2015 Units:  English    Metric   Both
« Previous Day
Next Day »
Daily Weekly Monthly Yearly Custom
  Current: High: Low: Average:
Temperature: 48.7 °F 66.6 °F 37.1 °F 50.1 °F
Dew Point: 46.8 °F 61.5 °F 35.8 °F 48.2 °F
Humidity: 93% 97% 83% 93%
Wind Speed: 3.0mph 12.0mph 0.0mph 3mph
Wind Gust: 4.0mph 20.0mph - -
WindWNW - - SSW
Pressure: 29.71 in 30.17 in 29.58 in -
Precipitation: 0.24 in      
Historical Graphs
 
 
Tabular Data for March 26, 2015
Time Temperature Dew Point Pressure Wind Wind Speed Wind Gust Humidity Rainfall Rate (Hourly)
00:00 39.8 °F 38.5 °F 30.17 in Calm   1.0 mph 95% 0.00 in
00:05 39.8 °F 38.5 °F 30.17 in ENE 1.0 mph 1.0 mph 95% 0.00 in
00:10 39.8 °F 38.5 °F 30.17 in ENE 1.0 mph 1.0 mph 95% 0.00 in
00:15 39.8 °F 38.5 °F 30.16 in Calm   1.0 mph 95% 0.00 in
00:20 39.7 °F 38.4 °F 30.16 in Calm     95% 0.00 in
00:25 39.7 °F 38.4 °F 30.16 in ENE 1.0 mph 1.0 mph 95% 0.00 in
00:30 39.6 °F 38.3 °F 30.16 in Calm     95% 0.00 in
00:35 39.6 °F 38.3 °F 30.15 in Calm     95% 0.00 in
00:40 39.6 °F 38.3 °F 30.16 in Calm     95% 0.00 in
00:45 39.7 °F 38.4 °F 30.15 in Calm     95% 0.00 in
00:50 39.7 °F 38.4 °F 30.16 in Calm     95% 0.00 in
00:55 39.6 °F 38.3 °F 30.16 in Calm     95% 0.00 in
01:00 39.7 °F 38.4 °F 30.15 in Calm     95% 0.00 in
01:05 39.7 °F 38.4 °F 30.15 in Calm     95% 0.00 in
01:10 39.6 °F 38.3 °F 30.14 in Calm     95% 0.00 in
01:15 39.7 °F 38.4 °F 30.14 in Calm     95% 0.00 in
01:20 39.7 °F 38.4 °F 30.14 in Calm     95% 0.00 in
01:25 39.7 °F 38.4 °F 30.14 in Calm     95% 0.00 in
01:30 39.7 °F 38.4 °F 30.13 in Calm     95% 0.00 in
01:35 39.7 °F 38.4 °F 30.13 in Calm     95% 0.00 in
01:40 39.7 °F 38.4 °F 30.13 in Calm     95% 0.00 in
01:45 39.8 °F 38.5 °F 30.12 in Calm     95% 0.00 in
01:50 39.7 °F 38.4 °F 30.13 in Calm     95% 0.00 in
01:55 39.7 °F 38.4 °F 30.12 in Calm     95% 0.00 in
02:00 39.7 °F 38.4 °F 30.13 in Calm     95% 0.00 in
02:05 39.7 °F 38.4 °F 30.12 in Calm     95% 0.00 in
02:10 39.7 °F 38.4 °F 30.12 in Calm   1.0 mph 95% 0.00 in
02:15 39.7 °F 38.4 °F 30.11 in NE 2.0 mph 2.0 mph 95% 0.00 in
02:20 39.7 °F 38.4 °F 30.11 in East 1.0 mph 2.0 mph 95% 0.00 in
02:25 39.7 °F 38.4 °F 30.10 in East 1.0 mph 1.0 mph 95% 0.00 in
02:30 39.7 °F 38.7 °F 30.10 in Calm   1.0 mph 96% 0.00 in
02:35 39.6 °F 38.6 °F 30.09 in ESE 1.0 mph 1.0 mph 96% 0.00 in
02:40 39.6 °F 38.6 °F 30.09 in Calm   1.0 mph 96% 0.00 in
02:45 39.6 °F 38.6 °F 30.10 in Calm   1.0 mph 96% 0.00 in
02:50 39.5 °F 38.5 °F 30.09 in Calm     96% 0.00 in
02:55 39.5 °F 38.5 °F 30.09 in Calm     96% 0.00 in
03:00 39.5 °F 38.5 °F 30.09 in Calm     96% 0.00 in
03:05 39.3 °F 38.0 °F 30.08 in Calm     95% 0.00 in
03:10 39.2 °F 37.9 °F 30.08 in Calm     95% 0.00 in
03:15 39.1 °F 37.8 °F 30.08 in Calm     95% 0.00 in
03:20 38.9 °F 37.6 °F 30.08 in Calm     95% 0.00 in
03:25 38.8 °F 37.5 °F 30.08 in Calm     95% 0.00 in
03:30 38.6 °F 37.3 °F 30.08 in Calm     95% 0.00 in
03:35 38.5 °F 37.2 °F 30.07 in Calm     95% 0.00 in
03:40 38.5 °F 37.2 °F 30.07 in Calm     95% 0.00 in
03:45 38.5 °F 37.2 °F 30.07 in Calm     95% 0.00 in
03:50 38.5 °F 37.2 °F 30.07 in Calm     95% 0.00 in
03:55 38.6 °F 37.6 °F 30.07 in Calm     96% 0.00 in
04:00 38.6 °F 37.6 °F 30.06 in Calm     96% 0.00 in
04:05 38.7 °F 37.7 °F 30.05 in Calm     96% 0.00 in
04:10 38.7 °F 37.7 °F 30.05 in Calm     96% 0.00 in
04:15 38.7 °F 37.7 °F 30.05 in Calm     96% 0.00 in
04:20 38.7 °F 37.7 °F 30.05 in Calm     96% 0.00 in
04:25 38.6 °F 37.6 °F 30.04 in Calm     96% 0.00 in
04:30 38.6 °F 37.6 °F 30.04 in Calm     96% 0.00 in
04:35 38.8 °F 37.8 °F 30.04 in Calm   1.0 mph 96% 0.00 in
04:40 38.9 °F 37.9 °F 30.04 in Calm   1.0 mph 96% 0.00 in
04:45 38.9 °F 37.9 °F 30.03 in Calm     96% 0.00 in
04:50 39.0 °F 38.0 °F 30.03 in Calm   1.0 mph 96% 0.00 in
04:55 39.0 °F 38.0 °F 30.03 in Calm     96% 0.00 in
05:00 39.0 °F 38.0 °F 30.03 in Calm     96% 0.00 in
05:05 38.9 °F 37.9 °F 30.03 in Calm     96% 0.00 in
05:10 38.7 °F 37.4 °F 30.03 in Calm     95% 0.00 in
05:15 38.6 °F 37.3 °F 30.04 in Calm   1.0 mph 95% 0.00 in
05:20 38.4 °F 37.1 °F 30.04 in Calm     95% 0.00 in
05:25 38.2 °F 36.9 °F 30.03 in Calm     95% 0.00 in
05:31 38.1 °F 36.8 °F 30.03 in Calm     95% 0.00 in
05:36 38.0 °F 36.7 °F 30.03 in Calm     95% 0.00 in
05:41 37.8 °F 36.5 °F 30.02 in Calm     95% 0.00 in
05:46 37.7 °F 36.4 °F 30.02 in Calm     95% 0.00 in
05:51 37.6 °F 36.3 °F 30.02 in Calm     95% 0.00 in
05:56 37.5 °F 36.2 °F 30.02 in Calm   1.0 mph 95% 0.00 in
06:01 37.4 °F 36.1 °F 30.02 in Calm     95% 0.00 in
06:06 37.3 °F 36.0 °F 30.01 in Calm     95% 0.00 in
06:11 37.1 °F 35.8 °F 30.02 in Calm     95% 0.00 in
06:16 37.1 °F 35.8 °F 30.02 in Calm     95% 0.00 in
06:21 37.2 °F 36.2 °F 30.02 in Calm     96% 0.00 in
06:26 37.3 °F 36.3 °F 30.01 in Calm     96% 0.00 in
06:31 37.5 °F 36.5 °F 30.01 in Calm     96% 0.00 in
06:36 37.8 °F 36.8 °F 30.00 in ENE 1.0 mph 1.0 mph 96% 0.00 in
06:41 38.1 °F 37.3 °F 30.00 in Calm     97% 0.00 in
06:46 38.4 °F 37.6 °F 30.00 in Calm     97% 0.00 in
06:51 38.7 °F 37.9 °F 30.00 in Calm   1.0 mph 97% 0.00 in
06:56 38.9 °F 38.1 °F 30.00 in Calm   1.0 mph 97% 0.00 in
07:01 39.1 °F 38.3 °F 30.00 in Calm     97% 0.00 in
07:06 39.2 °F 38.4 °F 30.01 in Calm     97% 0.00 in
07:11 39.3 °F 38.5 °F 30.00 in Calm     97% 0.00 in
07:16 39.5 °F 38.7 °F 30.00 in Calm     97% 0.00 in
07:21 39.7 °F 38.9 °F 30.00 in Calm     97% 0.00 in
07:26 39.9 °F 39.1 °F 30.00 in Calm     97% 0.00 in
07:31 40.1 °F 39.3 °F 30.00 in Calm   1.0 mph 97% 0.00 in
07:36 40.2 °F 39.4 °F 29.99 in Calm   2.0 mph 97% 0.00 in
07:41 40.3 °F 39.5 °F 29.99 in Calm   1.0 mph 97% 0.00 in
07:46 40.4 °F 39.6 °F 29.99 in Calm   1.0 mph 97% 0.00 in
07:51 40.6 °F 39.8 °F 29.99 in Calm     97% 0.00 in
07:56 40.8 °F 40.0 °F 29.99 in Calm   1.0 mph 97% 0.00 in
08:01 40.9 °F 40.1 °F 29.99 in Calm     97% 0.00 in
08:06 41.1 °F 40.3 °F 29.99 in Calm     97% 0.00 in
08:11 41.3 °F 40.5 °F 29.99 in Calm   1.0 mph 97% 0.00 in
08:16 41.5 °F 40.7 °F 29.98 in Calm   1.0 mph 97% 0.00 in
08:21 41.7 °F 40.9 °F 29.98 in Calm   1.0 mph 97% 0.00 in
08:26 41.8 °F 41.0 °F 29.98 in SSE 1.0 mph 2.0 mph 97% 0.00 in
08:31 42.0 °F 41.2 °F 29.98 in Calm   1.0 mph 97% 0.00 in
08:36 42.1 °F 41.3 °F 29.97 in Calm   2.0 mph 97% 0.00 in
08:41 42.3 °F 41.5 °F 29.97 in Calm   1.0 mph 97% 0.00 in
08:46 42.8 °F 42.0 °F 29.97 in Calm   2.0 mph 97% 0.00 in
08:51 43.2 °F 42.4 °F 29.97 in Calm   1.0 mph 97% 0.00 in
08:56 43.4 °F 42.6 °F 29.97 in SSE 1.0 mph 1.0 mph 97% 0.00 in
09:01 43.5 °F 42.7 °F 29.97 in Calm   1.0 mph 97% 0.00 in
09:06 43.6 °F 42.8 °F 29.96 in SSE 1.0 mph 1.0 mph 97% 0.00 in
09:11 43.7 °F 42.6 °F 29.96 in SSE 1.0 mph 1.0 mph 96% 0.00 in
09:16 43.9 °F 43.1 °F 29.96 in SSE 1.0 mph 2.0 mph 97% 0.00 in
09:21 44.2 °F 43.4 °F 29.95 in SSE 1.0 mph 1.0 mph 97% 0.00 in
09:26 44.4 °F 43.3 °F 29.95 in SSE 2.0 mph 2.0 mph 96% 0.00 in
09:31 44.7 °F 43.9 °F 29.95 in Calm   1.0 mph 97% 0.00 in
09:36 45.0 °F 43.9 °F 29.95 in Calm     96% 0.00 in
09:41 45.3 °F 44.2 °F 29.94 in Calm   1.0 mph 96% 0.00 in
09:46 45.5 °F 44.4 °F 29.94 in Calm     96% 0.00 in
09:51 45.8 °F 44.5 °F 29.95 in SSE 1.0 mph 1.0 mph 95% 0.00 in
09:56 46.1 °F 44.8 °F 29.94 in Calm   3.0 mph 95% 0.00 in
10:01 46.4 °F 44.8 °F 29.94 in Calm   1.0 mph 94% 0.00 in
10:06 46.7 °F 45.1 °F 29.94 in Calm     94% 0.00 in
10:11 47.0 °F 45.4 °F 29.94 in Calm     94% 0.00 in
10:16 47.3 °F 45.7 °F 29.93 in Calm     94% 0.00 in
10:21 47.6 °F 45.7 °F 29.93 in SSE 1.0 mph 2.0 mph 93% 0.00 in
10:26 47.8 °F 45.9 °F 29.93 in Calm   1.0 mph 93% 0.00 in
10:31 48.2 °F 46.0 °F 29.92 in SSE 1.0 mph 1.0 mph 92% 0.00 in
10:36 48.4 °F 46.2 °F 29.92 in Calm     92% 0.00 in
10:41 48.8 °F 46.9 °F 29.92 in Calm   1.0 mph 93% 0.00 in
10:46 49.2 °F 47.0 °F 29.92 in Calm   1.0 mph 92% 0.00 in
10:51 49.6 °F 47.4 °F 29.91 in SSE 1.0 mph 2.0 mph 92% 0.00 in
10:56 49.9 °F 47.4 °F 29.91 in Calm   1.0 mph 91% 0.00 in
11:01 50.3 °F 47.8 °F 29.91 in Calm   1.0 mph 91% 0.00 in
11:06 50.5 °F 48.0 °F 29.90 in Calm   1.0 mph 91% 0.00 in
11:11 50.9 °F 48.7 °F 29.90 in SSE 1.0 mph 4.0 mph 92% 0.00 in
11:16 51.4 °F 49.2 °F 29.90 in SW 3.0 mph 3.0 mph 92% 0.00 in
11:21 51.7 °F 49.2 °F 29.90 in WSW 2.0 mph 3.0 mph 91% 0.00 in
11:26 52.0 °F 49.5 °F 29.90 in SW 2.0 mph 2.0 mph 91% 0.00 in
11:31 52.1 °F 49.8 °F 29.90 in WSW 1.0 mph 3.0 mph 92% 0.00 in
11:36 52.2 °F 50.0 °F 29.88 in South 1.0 mph 3.0 mph 92% 0.00 in
11:41 52.4 °F 50.4 °F 29.88 in Calm   2.0 mph 93% 0.00 in
11:46 52.7 °F 50.7 °F 29.89 in SW 1.0 mph 3.0 mph 93% 0.01 in
11:51 52.9 °F 50.9 °F 29.88 in Calm   3.0 mph 93% 0.01 in
11:56 53.1 °F 51.1 °F 29.87 in Calm   3.0 mph 93% 0.01 in
12:01 53.4 °F 51.7 °F 29.86 in South 2.0 mph 2.0 mph 94% 0.01 in
12:06 53.7 °F 52.3 °F 29.86 in SSW 1.0 mph 3.0 mph 95% 0.01 in
12:11 54.0 °F 52.3 °F 29.86 in SE 2.0 mph 4.0 mph 94% 0.01 in
12:16 54.3 °F 52.6 °F 29.86 in Calm   3.0 mph 94% 0.01 in
12:21 54.5 °F 53.1 °F 29.84 in South 1.0 mph 4.0 mph 95% 0.01 in
12:26 54.8 °F 53.4 °F 29.85 in WSW 2.0 mph 2.0 mph 95% 0.01 in
12:31 55.1 °F 53.7 °F 29.84 in South 1.0 mph 3.0 mph 95% 0.01 in
12:36 55.1 °F 53.4 °F 29.83 in South 1.0 mph 2.0 mph 94% 0.01 in
12:41 55.2 °F 53.5 °F 29.84 in South 2.0 mph 2.0 mph 94% 0.01 in
12:46 55.3 °F 53.6 °F 29.83 in South 1.0 mph 2.0 mph 94% 0.00 in
12:51 55.4 °F 53.7 °F 29.83 in South 2.0 mph 4.0 mph 94% 0.00 in
12:56 55.4 °F 53.7 °F 29.81 in SSW 1.0 mph 2.0 mph 94% 0.01 in
13:01 55.4 °F 53.7 °F 29.81 in South 4.0 mph 4.0 mph 94% 0.01 in
13:06 55.5 °F 53.8 °F 29.80 in South 1.0 mph 3.0 mph 94% 0.01 in
13:11 55.5 °F 54.1 °F 29.80 in SSE 3.0 mph 3.0 mph 95% 0.01 in
13:16 55.5 °F 54.1 °F 29.80 in SSE 4.0 mph 4.0 mph 95% 0.01 in
13:21 55.6 °F 54.2 °F 29.79 in South 1.0 mph 2.0 mph 95% 0.01 in
13:26 55.7 °F 54.3 °F 29.79 in South 2.0 mph 2.0 mph 95% 0.01 in
13:31 55.8 °F 54.4 °F 29.78 in South 4.0 mph 4.0 mph 95% 0.01 in
13:36 55.9 °F 54.5 °F 29.78 in South 2.0 mph 4.0 mph 95% 0.01 in
13:41 56.0 °F 54.9 °F 29.78 in South 1.0 mph 5.0 mph 96% 0.01 in
13:46 56.1 °F 55.0 °F 29.77 in SSE 1.0 mph 5.0 mph 96% 0.01 in
13:51 56.3 °F 55.2 °F 29.77 in SSW 1.0 mph 4.0 mph 96% 0.01 in
13:56 56.5 °F 55.4 °F 29.77 in South 1.0 mph 3.0 mph 96% 0.00 in
14:01 56.8 °F 55.7 °F 29.76 in WSW 2.0 mph 7.0 mph 96% 0.00 in
14:06 57.0 °F 55.9 °F 29.76 in SW 3.0 mph 4.0 mph 96% 0.00 in
14:11 57.2 °F 56.1 °F 29.76 in SW 3.0 mph 3.0 mph 96% 0.00 in
14:16 57.5 °F 56.7 °F 29.75 in WSW 3.0 mph 4.0 mph 97% 0.00 in
14:21 57.7 °F 56.9 °F 29.75 in South 1.0 mph 3.0 mph 97% 0.00 in
14:26 57.9 °F 56.8 °F 29.74 in South 3.0 mph 5.0 mph 96% 0.01 in
14:31 58.0 °F 56.9 °F 29.74 in Calm   4.0 mph 96% 0.01 in
14:36 58.1 °F 57.0 °F 29.74 in South 2.0 mph 2.0 mph 96% 0.01 in
14:41 58.2 °F 57.1 °F 29.73 in SSW 2.0 mph 2.0 mph 96% 0.01 in
14:46 58.4 °F 57.3 °F 29.72 in SSW 2.0 mph 6.0 mph 96% 0.01 in
14:51 58.6 °F 57.5 °F 29.72 in SSW 1.0 mph 3.0 mph 96% 0.01 in
14:56 59.0 °F 58.2 °F 29.72 in South 2.0 mph 5.0 mph 97% 0.01 in
15:01 59.5 °F 58.7 °F 29.71 in WSW 5.0 mph 8.0 mph 97% 0.01 in
15:06 60.0 °F 59.2 °F 29.71 in South 2.0 mph 2.0 mph 97% 0.01 in
15:11 60.4 °F 59.5 °F 29.71 in WSW 2.0 mph 6.0 mph 97% 0.01 in
15:16 60.5 °F 59.7 °F 29.70 in West 4.0 mph 4.0 mph 97% 0.01 in
15:21 60.8 °F 60.0 °F 29.69 in South 4.0 mph 6.0 mph 97% 0.01 in
15:26 61.2 °F 60.3 °F 29.69 in South 1.0 mph 4.0 mph 97% 0.00 in
15:31 61.5 °F 60.3 °F 29.69 in South 3.0 mph 4.0 mph 96% 0.00 in
15:36 61.7 °F 60.5 °F 29.68 in SSE 2.0 mph 3.0 mph 96% 0.00 in
15:41 61.9 °F 60.8 °F 29.68 in SW 3.0 mph 6.0 mph 96% 0.00 in
15:46 62.2 °F 60.8 °F 29.68 in Calm   8.0 mph 95% 0.00 in
15:51 62.4 °F 61.0 °F 29.68 in South 5.0 mph 6.0 mph 95% 0.00 in
15:56 62.6 °F 60.8 °F 29.68 in SSW 3.0 mph 8.0 mph 94% 0.00 in
16:01 62.9 °F 60.8 °F 29.68 in SSE 5.0 mph 6.0 mph 93% 0.00 in
16:06 63.1 °F 61.0 °F 29.67 in South 1.0 mph 6.0 mph 93% 0.00 in
16:11 63.3 °F 60.9 °F 29.66 in South 1.0 mph 3.0 mph 92% 0.00 in
16:16 63.6 °F 61.2 °F 29.66 in SW 2.0 mph 9.0 mph 92% 0.00 in
16:21 63.9 °F 61.2 °F 29.66 in SSW 2.0 mph 6.0 mph 91% 0.00 in
16:26 64.1 °F 61.1 °F 29.66 in South 2.0 mph 5.0 mph 90% 0.00 in
16:31 64.3 °F 61.0 °F 29.66 in SSE 7.0 mph 7.0 mph 89% 0.00 in
16:36 64.4 °F 61.1 °F 29.65 in SSW 9.0 mph 12.0 mph 89% 0.00 in
16:41 64.6 °F 61.0 °F 29.65 in SW 4.0 mph 6.0 mph 88% 0.00 in
16:46 64.9 °F 60.9 °F 29.65 in West 6.0 mph 14.0 mph 87% 0.00 in
16:51 65.2 °F 61.2 °F 29.64 in SSW 5.0 mph 17.0 mph 87% 0.00 in
16:56 65.5 °F 61.2 °F 29.65 in SW 3.0 mph 7.0 mph 86% 0.00 in
17:01 65.8 °F 61.5 °F 29.65 in WNW 4.0 mph 15.0 mph 86% 0.00 in
17:06 66.0 °F 61.4 °F 29.64 in South 6.0 mph 10.0 mph 85% 0.00 in
17:11 66.3 °F 61.3 °F 29.64 in SW 2.0 mph 11.0 mph 84% 0.00 in
17:16 66.6 °F 61.3 °F 29.64 in SSW 2.0 mph 8.0 mph 83% 0.00 in
17:21 66.6 °F 61.3 °F 29.64 in SW 2.0 mph 10.0 mph 83% 0.00 in
17:26 66.3 °F 61.0 °F 29.64 in SSE 9.0 mph 14.0 mph 83% 0.00 in
17:31 66.0 °F 60.7 °F 29.63 in SSW 4.0 mph 8.0 mph 83% 0.00 in
17:36 65.8 °F 60.5 °F 29.63 in SSW 3.0 mph 5.0 mph 83% 0.00 in
17:41 65.7 °F 60.7 °F 29.63 in WSW 2.0 mph 12.0 mph 84% 0.00 in
17:46 65.7 °F 60.7 °F 29.62 in South 7.0 mph 16.0 mph 84% 0.00 in
17:51 65.7 °F 60.7 °F 29.62 in South 10.0 mph 16.0 mph 84% 0.00 in
17:56 65.6 °F 60.6 °F 29.62 in South 8.0 mph 13.0 mph 84% 0.00 in
18:01 65.4 °F 60.8 °F 29.61 in South 3.0 mph 12.0 mph 85% 0.00 in
18:06 65.2 °F 60.6 °F 29.61 in SSW 3.0 mph 12.0 mph 85% 0.00 in
18:11 64.9 °F 60.3 °F 29.60 in SW 4.0 mph 10.0 mph 85% 0.00 in
18:16 64.7 °F 60.1 °F 29.60 in WSW 3.0 mph 11.0 mph 85% 0.00 in
18:21 64.8 °F 60.2 °F 29.60 in SSE 7.0 mph 11.0 mph 85% 0.00 in
18:26 64.8 °F 60.2 °F 29.60 in South 3.0 mph 11.0 mph 85% 0.00 in
18:31 64.8 °F 60.2 °F 29.60 in South 4.0 mph 10.0 mph 85% 0.00 in
18:36 64.6 °F 60.0 °F 29.59 in South 5.0 mph 11.0 mph 85% 0.00 in
18:41 64.4 °F 59.8 °F 29.59 in SSE 9.0 mph 9.0 mph 85% 0.00 in
18:46 64.3 °F 59.7 °F 29.58 in ESE 4.0 mph 10.0 mph 85% 0.00 in
18:51 64.1 °F 59.8 °F 29.59 in SSW 4.0 mph 8.0 mph 86% 0.00 in
18:56 64.0 °F 59.7 °F 29.59 in South 3.0 mph 9.0 mph 86% 0.00 in
19:01 64.0 °F 59.7 °F 29.59 in SW 6.0 mph 7.0 mph 86% 0.00 in
19:06 63.9 °F 59.6 °F 29.59 in SSE 5.0 mph 20.0 mph 86% 0.00 in
19:11 63.7 °F 59.4 °F 29.59 in South 4.0 mph 11.0 mph 86% 0.00 in
19:16 63.4 °F 59.5 °F 29.59 in WSW 4.0 mph 13.0 mph 87% 0.00 in
19:21 63.2 °F 59.3 °F 29.60 in South 8.0 mph 9.0 mph 87% 0.00 in
19:26 63.0 °F 59.1 °F 29.60 in SSE 3.0 mph 7.0 mph 87% 0.00 in
19:31 62.8 °F 59.2 °F 29.60 in SW 3.0 mph 7.0 mph 88% 0.00 in
19:36 62.7 °F 59.1 °F 29.60 in SSE 5.0 mph 6.0 mph 88% 0.00 in
19:41 62.6 °F 59.0 °F 29.60 in South 7.0 mph 7.0 mph 88% 0.00 in
19:46 62.6 °F 59.3 °F 29.59 in SSW 6.0 mph 8.0 mph 89% 0.00 in
19:51 62.5 °F 59.2 °F 29.58 in SSE 6.0 mph 8.0 mph 89% 0.00 in
19:56 62.5 °F 59.2 °F 29.58 in SSW 10.0 mph 10.0 mph 89% 0.00 in
20:01 62.4 °F 59.1 °F 29.58 in SSE 9.0 mph 12.0 mph 89% 0.00 in
20:06 62.3 °F 59.0 °F 29.58 in SW 4.0 mph 10.0 mph 89% 0.00 in
20:11 62.2 °F 58.9 °F 29.58 in SW 3.0 mph 9.0 mph 89% 0.00 in
20:16 62.2 °F 59.2 °F 29.59 in South 1.0 mph 9.0 mph 90% 0.00 in
20:21 62.2 °F 58.9 °F 29.60 in West 1.0 mph 5.0 mph 89% 0.00 in
20:26 62.2 °F 58.9 °F 29.61 in SW 2.0 mph 6.0 mph 89% 0.00 in
20:31 62.1 °F 58.8 °F 29.62 in WNW 2.0 mph 3.0 mph 89% 0.00 in
20:36 62.1 °F 58.8 °F 29.64 in North 9.0 mph 12.0 mph 89% 0.00 in
20:41 61.3 °F 56.1 °F 29.64 in NW 6.0 mph 11.0 mph 83% 0.00 in
20:46 60.4 °F 55.5 °F 29.66 in NNW 2.0 mph 8.0 mph 84% 0.00 in
20:51 59.3 °F 54.8 °F 29.65 in North 12.0 mph 12.0 mph 85% 0.01 in
20:56 57.8 °F 54.0 °F 29.66 in North 1.0 mph 7.0 mph 87% 0.02 in
21:01 57.1 °F 53.9 °F 29.66 in NW 2.0 mph 4.0 mph 89% 0.04 in
21:06 56.4 °F 53.5 °F 29.66 in NNW 5.0 mph 8.0 mph 90% 0.05 in
21:11 55.9 °F 53.3 °F 29.68 in NW 1.0 mph 3.0 mph 91% 0.07 in
21:16 55.5 °F 52.9 °F 29.68 in Calm   3.0 mph 91% 0.08 in
21:21 55.2 °F 52.6 °F 29.68 in WNW 1.0 mph 3.0 mph 91% 0.09 in
21:26 54.9 °F 52.6 °F 29.69 in WSW 4.0 mph 4.0 mph 92% 0.09 in
21:31 54.5 °F 52.2 °F 29.69 in North 2.0 mph 4.0 mph 92% 0.10 in
21:36 54.1 °F 51.8 °F 29.69 in NW 2.0 mph 4.0 mph 92% 0.11 in
21:41 53.9 °F 51.6 °F 29.69 in NNW 3.0 mph 4.0 mph 92% 0.12 in
21:46 53.5 °F 51.2 °F 29.68 in NW 2.0 mph 8.0 mph 92% 0.13 in
21:51 53.2 °F 51.2 °F 29.68 in North 4.0 mph 6.0 mph 93% 0.14 in
21:56 52.7 °F 50.5 °F 29.68 in NNE 5.0 mph 8.0 mph 92% 0.13 in
22:01 52.4 °F 50.4 °F 29.68 in ENE 4.0 mph 8.0 mph 93% 0.13 in
22:06 52.1 °F 49.8 °F 29.67 in North 2.0 mph 3.0 mph 92% 0.12 in
22:11 51.8 °F 49.8 °F 29.68 in NNW 1.0 mph 4.0 mph 93% 0.12 in
22:16 51.6 °F 49.7 °F 29.68 in NW 5.0 mph 5.0 mph 93% 0.12 in
22:21 51.4 °F 49.5 °F 29.67 in North 1.0 mph 3.0 mph 93% 0.12 in
22:26 51.2 °F 49.2 °F 29.67 in NW 1.0 mph 4.0 mph 93% 0.11 in
22:31 51.0 °F 49.0 °F 29.68 in NNW 3.0 mph 3.0 mph 93% 0.11 in
22:36 50.9 °F 49.0 °F 29.68 in NNW 2.0 mph 4.0 mph 93% 0.10 in
22:41 50.8 °F 48.8 °F 29.68 in NW 3.0 mph 3.0 mph 93% 0.09 in
22:46 50.7 °F 48.8 °F 29.68 in NW 2.0 mph 7.0 mph 93% 0.08 in
22:51 50.5 °F 48.6 °F 29.68 in WNW 4.0 mph 5.0 mph 93% 0.07 in
22:56 50.2 °F 48.3 °F 29.69 in NW 4.0 mph 11.0 mph 93% 0.06 in
23:01 50.0 °F 48.1 °F 29.69 in NNW 4.0 mph 8.0 mph 93% 0.05 in
23:06 49.8 °F 47.9 °F 29.69 in North 3.0 mph 8.0 mph 93% 0.04 in
23:11 49.6 °F 47.7 °F 29.69 in NNW 3.0 mph 3.0 mph 93% 0.03 in
23:16 49.4 °F 47.5 °F 29.69 in WNW 3.0 mph 4.0 mph 93% 0.02 in
23:21 49.1 °F 47.2 °F 29.70 in North 3.0 mph 7.0 mph 93% 0.01 in
23:26 48.9 °F 47.0 °F 29.70 in NNE 1.0 mph 6.0 mph 93% 0.01 in
23:31 48.7 °F 46.8 °F 29.71 in WNW 3.0 mph 4.0 mph 93% 0.00 in
HorshamWeather.Com
Compliments of Weather Underground